Aviation Digital Data Service (ADDS)

Output produced by METARs form (0220 UTC 19 October 2021)
found at http://www.aviationweather.gov/metar/data/
 
METAR text: ETMN 190120Z 19007KT 9999 BKN054 OVC080 11/08 Q1018 BLU
Conditions at: ETMN (NORDHOLZ (GER-NA, DE) observed 0120 UTC 19 October 2021
Temperature: 11.0°C (52°F)
Dewpoint: 8.0°C (46°F) [RH = 82%]
Pressure (altimeter): 30.06 inches Hg (1018.0 mb)
Winds: from the S (190 degrees) at 8 MPH (7 knots; 3.6 m/s)
Visibility: 6 or more miles (10+ km)
Ceiling: 5400 feet AGL
Clouds: broken clouds at 5400 feet AGL
overcast cloud deck at 8000 feet AGL
Weather: no significant weather observed at this time

METAR text: ETMN 190020Z 19006KT 9999 BKN032 OVC085 11/08 Q1018 BLU
Conditions at: ETMN (NORDHOLZ (GER-NA, DE) observed 0020 UTC 19 October 2021
Temperature: 11.0°C (52°F)
Dewpoint: 8.0°C (46°F) [RH = 82%]
Pressure (altimeter): 30.06 inches Hg (1018.0 mb)
Winds: from the S (190 degrees) at 7 MPH (6 knots; 3.1 m/s)
Visibility: 6 or more miles (10+ km)
Ceiling: 3200 feet AGL
Clouds: broken clouds at 3200 feet AGL
overcast cloud deck at 8500 feet AGL
Weather: no significant weather observed at this time

METAR text: ETMN 182320Z 18005KT 9999 FEW110 BKN140 11/08 Q1018 BLU
Conditions at: ETMN (NORDHOLZ (GER-NA, DE) observed 2320 UTC 18 October 2021
Temperature: 11.0°C (52°F)
Dewpoint: 8.0°C (46°F) [RH = 82%]
Pressure (altimeter): 30.06 inches Hg (1018.0 mb)
Winds: from the S (180 degrees) at 6 MPH (5 knots; 2.6 m/s)
Visibility: 6 or more miles (10+ km)
Ceiling: 14000 feet AGL
Clouds: few clouds at 11000 feet AGL
broken clouds at 14000 feet AGL
Weather: no significant weather observed at this time

METAR text: ETMN 182220Z 18006KT 9999 FEW110 BKN150 12/08 Q1019 BLU
Conditions at: ETMN (NORDHOLZ (GER-NA, DE) observed 2220 UTC 18 October 2021
Temperature: 12.0°C (54°F)
Dewpoint: 8.0°C (46°F) [RH = 76%]
Pressure (altimeter): 30.09 inches Hg (1019.0 mb)
Winds: from the S (180 degrees) at 7 MPH (6 knots; 3.1 m/s)
Visibility: 6 or more miles (10+ km)
Ceiling: 15000 feet AGL
Clouds: few clouds at 11000 feet AGL
broken clouds at 15000 feet AGL
Weather: no significant weather observed at this time

METAR text: ETMN 182145Z 20007KT 9999 BKN110 12/08 Q1019 BLU FCST CNL
Conditions at: ETMN (NORDHOLZ (GER-NA, DE) observed 2145 UTC 18 October 2021
Temperature: 12.0°C (54°F)
Dewpoint: 8.0°C (46°F) [RH = 76%]
Pressure (altimeter): 30.09 inches Hg (1019.0 mb)
Winds: from the SSW (200 degrees) at 8 MPH (7 knots; 3.6 m/s)
Visibility: 6 or more miles (10+ km)
Ceiling: 11000 feet AGL
Clouds: broken clouds at 11000 feet AGL
Weather: no significant weather observed at this time

METAR text: ETMN 182120Z 19007KT 9999 BKN120 12/08 Q1018 BLU BLU
Conditions at: ETMN (NORDHOLZ (GER-NA, DE) observed 2120 UTC 18 October 2021
Temperature: 12.0°C (54°F)
Dewpoint: 8.0°C (46°F) [RH = 76%]
Pressure (altimeter): 30.06 inches Hg (1018.0 mb)
Winds: from the S (190 degrees) at 8 MPH (7 knots; 3.6 m/s)
Visibility: 6 or more miles (10+ km)
Ceiling: 12000 feet AGL
Clouds: broken clouds at 12000 feet AGL
Weather: no significant weather observed at this time

METAR text: ETMN 182020Z 18005KT 9999 BKN170 11/08 Q1019 BLU BLU
Conditions at: ETMN (NORDHOLZ (GER-NA, DE) observed 2020 UTC 18 October 2021
Temperature: 11.0°C (52°F)
Dewpoint: 8.0°C (46°F) [RH = 82%]
Pressure (altimeter): 30.09 inches Hg (1019.0 mb)
Winds: from the S (180 degrees) at 6 MPH (5 knots; 2.6 m/s)
Visibility: 6 or more miles (10+ km)
Ceiling: 17000 feet AGL
Clouds: broken clouds at 17000 feet AGL
Weather: no significant weather observed at this time

METAR text: ETMN 181920Z 17006KT 9999 BKN170 11/08 Q1019 BLU BLU
Conditions at: ETMN (NORDHOLZ (GER-NA, DE) observed 1920 UTC 18 October 2021
Temperature: 11.0°C (52°F)
Dewpoint: 8.0°C (46°F) [RH = 82%]
Pressure (altimeter): 30.09 inches Hg (1019.0 mb)
Winds: from the S (170 degrees) at 7 MPH (6 knots; 3.1 m/s)
Visibility: 6 or more miles (10+ km)
Ceiling: 17000 feet AGL
Clouds: broken clouds at 17000 feet AGL
Weather: no significant weather observed at this time

METAR text: ETMN 181820Z 18006KT 9999 FEW100 BKN180 12/08 Q1020 BLU BLU
Conditions at: ETMN (NORDHOLZ (GER-NA, DE) observed 1820 UTC 18 October 2021
Temperature: 12.0°C (54°F)
Dewpoint: 8.0°C (46°F) [RH = 76%]
Pressure (altimeter): 30.12 inches Hg (1020.0 mb)
Winds: from the S (180 degrees) at 7 MPH (6 knots; 3.1 m/s)
Visibility: 6 or more miles (10+ km)
Ceiling: 18000 feet AGL
Clouds: few clouds at 10000 feet AGL
broken clouds at 18000 feet AGL
Weather: no significant weather observed at this time

METAR text: ETMN 181720Z 16005KT 9999 FEW090 BKN140 12/09 Q1020 BLU BLU
Conditions at: ETMN (NORDHOLZ (GER-NA, DE) observed 1720 UTC 18 October 2021
Temperature: 12.0°C (54°F)
Dewpoint: 9.0°C (48°F) [RH = 82%]
Pressure (altimeter): 30.12 inches Hg (1020.0 mb)
Winds: from the SSE (160 degrees) at 6 MPH (5 knots; 2.6 m/s)
Visibility: 6 or more miles (10+ km)
Ceiling: 14000 feet AGL
Clouds: few clouds at 9000 feet AGL
broken clouds at 14000 feet AGL
Weather: no significant weather observed at this time

METAR text: ETMN 181620Z 17003KT 9999 BKN090 BKN190 12/09 Q1020 BLU BLU
Conditions at: ETMN (NORDHOLZ (GER-NA, DE) observed 1620 UTC 18 October 2021
Temperature: 12.0°C (54°F)
Dewpoint: 9.0°C (48°F) [RH = 82%]
Pressure (altimeter): 30.12 inches Hg (1020.0 mb)
Winds: from the S (170 degrees) at 3 MPH (3 knots; 1.5 m/s)
Visibility: 6 or more miles (10+ km)
Ceiling: 9000 feet AGL
Clouds: broken clouds at 9000 feet AGL
broken clouds at 19000 feet AGL
Weather: no significant weather observed at this time

METAR text: ETMN 181520Z 17005KT 9999 SCT080 BKN200 13/09 Q1020 BLU+BLU+
Conditions at: ETMN (NORDHOLZ (GER-NA, DE) observed 1520 UTC 18 October 2021
Temperature: 13.0°C (55°F)
Dewpoint: 9.0°C (48°F) [RH = 77%]
Pressure (altimeter): 30.12 inches Hg (1020.0 mb)
Winds: from the S (170 degrees) at 6 MPH (5 knots; 2.6 m/s)
Visibility: 6 or more miles (10+ km)
Ceiling: 20000 feet AGL
Clouds: scattered clouds at 8000 feet AGL
broken clouds at 20000 feet AGL
Weather: no significant weather observed at this time

METAR text: ETMN 181420Z 17007KT 9999 BKN080 BKN180 14/08 Q1020 BLU BLU+ TEMPO BLU
Conditions at: ETMN (NORDHOLZ (GER-NA, DE) observed 1420 UTC 18 October 2021
Temperature: 14.0°C (57°F)
Dewpoint: 8.0°C (46°F) [RH = 67%]
Pressure (altimeter): 30.12 inches Hg (1020.0 mb)
Winds: from the S (170 degrees) at 8 MPH (7 knots; 3.6 m/s)
Visibility: 6 or more miles (10+ km)
Ceiling: 8000 feet AGL
Clouds: broken clouds at 8000 feet AGL
broken clouds at 18000 feet AGL
Weather: no significant weather observed at this time

METAR text: ETMN 181320Z 20006KT 9999 SCT080 BKN200 14/08 Q1020 BLU+BLU+
Conditions at: ETMN (NORDHOLZ (GER-NA, DE) observed 1320 UTC 18 October 2021
Temperature: 14.0°C (57°F)
Dewpoint: 8.0°C (46°F) [RH = 67%]
Pressure (altimeter): 30.12 inches Hg (1020.0 mb)
Winds: from the SSW (200 degrees) at 7 MPH (6 knots; 3.1 m/s)
Visibility: 6 or more miles (10+ km)
Ceiling: 20000 feet AGL
Clouds: scattered clouds at 8000 feet AGL
broken clouds at 20000 feet AGL
Weather: no significant weather observed at this time

METAR text: ETMN 181220Z 22007KT 9999 FEW070 BKN080 14/08 Q1021 BLU BLU
Conditions at: ETMN (NORDHOLZ (GER-NA, DE) observed 1220 UTC 18 October 2021
Temperature: 14.0°C (57°F)
Dewpoint: 8.0°C (46°F) [RH = 67%]
Pressure (altimeter): 30.15 inches Hg (1021.0 mb)
Winds: from the SW (220 degrees) at 8 MPH (7 knots; 3.6 m/s)
Visibility: 6 or more miles (10+ km)
Ceiling: 8000 feet AGL
Clouds: few clouds at 7000 feet AGL
broken clouds at 8000 feet AGL
Weather: no significant weather observed at this time

METAR text: ETMN 181120Z 22007KT 9999 FEW060 BKN080 13/08 Q1021 BLU BLU
Conditions at: ETMN (NORDHOLZ (GER-NA, DE) observed 1120 UTC 18 October 2021
Temperature: 13.0°C (55°F)
Dewpoint: 8.0°C (46°F) [RH = 72%]
Pressure (altimeter): 30.15 inches Hg (1021.0 mb)
Winds: from the SW (220 degrees) at 8 MPH (7 knots; 3.6 m/s)
Visibility: 6 or more miles (10+ km)
Ceiling: 8000 feet AGL
Clouds: few clouds at 6000 feet AGL
broken clouds at 8000 feet AGL
Weather: no significant weather observed at this time

METAR text: ETMN 181020Z 22009KT 9999 BKN080 13/08 Q1022 BLU BLU
Conditions at: ETMN (NORDHOLZ (GER-NA, DE) observed 1020 UTC 18 October 2021
Temperature: 13.0°C (55°F)
Dewpoint: 8.0°C (46°F) [RH = 72%]
Pressure (altimeter): 30.18 inches Hg (1022.0 mb)
Winds: from the SW (220 degrees) at 10 MPH (9 knots; 4.6 m/s)
Visibility: 6 or more miles (10+ km)
Ceiling: 8000 feet AGL
Clouds: broken clouds at 8000 feet AGL
Weather: no significant weather observed at this time

METAR text: ETMN 180920Z 23010KT 9999 BKN080 12/08 Q1021 BLU BLU
Conditions at: ETMN (NORDHOLZ (GER-NA, DE) observed 0920 UTC 18 October 2021
Temperature: 12.0°C (54°F)
Dewpoint: 8.0°C (46°F) [RH = 76%]
Pressure (altimeter): 30.15 inches Hg (1021.0 mb)
Winds: from the SW (230 degrees) at 12 MPH (10 knots; 5.1 m/s)
Visibility: 6 or more miles (10+ km)
Ceiling: 8000 feet AGL
Clouds: broken clouds at 8000 feet AGL
Weather: no significant weather observed at this time

METAR text: ETMN 180820Z 22010KT 9999 FEW049 BKN080 11/08 Q1021 BLU BLU
Conditions at: ETMN (NORDHOLZ (GER-NA, DE) observed 0820 UTC 18 October 2021
Temperature: 11.0°C (52°F)
Dewpoint: 8.0°C (46°F) [RH = 82%]
Pressure (altimeter): 30.15 inches Hg (1021.0 mb)
Winds: from the SW (220 degrees) at 12 MPH (10 knots; 5.1 m/s)
Visibility: 6 or more miles (10+ km)
Ceiling: 8000 feet AGL
Clouds: few clouds at 4900 feet AGL
broken clouds at 8000 feet AGL
Weather: no significant weather observed at this time

METAR text: ETMN 180720Z 22009KT 9999 BKN047 11/07 Q1021 BLU BLU
Conditions at: ETMN (NORDHOLZ (GER-NA, DE) observed 0720 UTC 18 October 2021
Temperature: 11.0°C (52°F)
Dewpoint: 7.0°C (45°F) [RH = 76%]
Pressure (altimeter): 30.15 inches Hg (1021.0 mb)
Winds: from the SW (220 degrees) at 10 MPH (9 knots; 4.6 m/s)
Visibility: 6 or more miles (10+ km)
Ceiling: 4700 feet AGL
Clouds: broken clouds at 4700 feet AGL
Weather: no significant weather observed at this time

METAR text: ETMN 180620Z 22009KT 9999 BKN051 BKN090 10/07 Q1020 BLU BLU
Conditions at: ETMN (NORDHOLZ (GER-NA, DE) observed 0620 UTC 18 October 2021
Temperature: 10.0°C (50°F)
Dewpoint: 7.0°C (45°F) [RH = 82%]
Pressure (altimeter): 30.12 inches Hg (1020.0 mb)
Winds: from the SW (220 degrees) at 10 MPH (9 knots; 4.6 m/s)
Visibility: 6 or more miles (10+ km)
Ceiling: 5100 feet AGL
Clouds: broken clouds at 5100 feet AGL
broken clouds at 9000 feet AGL
Weather: no significant weather observed at this time

METAR text: ETMN 180520Z 22011KT 9999 FEW034 BKN056 10/07 Q1020 BLU BLU
Conditions at: ETMN (NORDHOLZ (GER-NA, DE) observed 0520 UTC 18 October 2021
Temperature: 10.0°C (50°F)
Dewpoint: 7.0°C (45°F) [RH = 82%]
Pressure (altimeter): 30.12 inches Hg (1020.0 mb)
Winds: from the SW (220 degrees) at 13 MPH (11 knots; 5.7 m/s)
Visibility: 6 or more miles (10+ km)
Ceiling: 5600 feet AGL
Clouds: few clouds at 3400 feet AGL
broken clouds at 5600 feet AGL
Weather: no significant weather observed at this time

METAR text: ETMN 180420Z 22009KT 9999 SCT034 BKN060 10/07 Q1020 BLU BLU
Conditions at: ETMN (NORDHOLZ (GER-NA, DE) observed 0420 UTC 18 October 2021
Temperature: 10.0°C (50°F)
Dewpoint: 7.0°C (45°F) [RH = 82%]
Pressure (altimeter): 30.12 inches Hg (1020.0 mb)
Winds: from the SW (220 degrees) at 10 MPH (9 knots; 4.6 m/s)
Visibility: 6 or more miles (10+ km)
Ceiling: 6000 feet AGL
Clouds: scattered clouds at 3400 feet AGL
broken clouds at 6000 feet AGL
Weather: no significant weather observed at this time

METAR text: ETMN 180320Z 23009KT 9999 BKN044 11/07 Q1020 BLU
Conditions at: ETMN (NORDHOLZ (GER-NA, DE) observed 0320 UTC 18 October 2021
Temperature: 11.0°C (52°F)
Dewpoint: 7.0°C (45°F) [RH = 76%]
Pressure (altimeter): 30.12 inches Hg (1020.0 mb)
Winds: from the SW (230 degrees) at 10 MPH (9 knots; 4.6 m/s)
Visibility: 6 or more miles (10+ km)
Ceiling: 4400 feet AGL
Clouds: broken clouds at 4400 feet AGL
Weather: no significant weather observed at this time

METAR text: ETMN 180220Z 22009KT 9999 BKN060 10/07 Q1020 BLU
Conditions at: ETMN (NORDHOLZ (GER-NA, DE) observed 0220 UTC 18 October 2021
Temperature: 10.0°C (50°F)
Dewpoint: 7.0°C (45°F) [RH = 82%]
Pressure (altimeter): 30.12 inches Hg (1020.0 mb)
Winds: from the SW (220 degrees) at 10 MPH (9 knots; 4.6 m/s)
Visibility: 6 or more miles (10+ km)
Ceiling: 6000 feet AGL
Clouds: broken clouds at 6000 feet AGL
Weather: no significant weather observed at this time

METAR text: ETMN 180120Z 22009KT 9999 BKN050 10/07 Q1020 BLU
Conditions at: ETMN (NORDHOLZ (GER-NA, DE) observed 0120 UTC 18 October 2021
Temperature: 10.0°C (50°F)
Dewpoint: 7.0°C (45°F) [RH = 82%]
Pressure (altimeter): 30.12 inches Hg (1020.0 mb)
Winds: from the SW (220 degrees) at 10 MPH (9 knots; 4.6 m/s)
Visibility: 6 or more miles (10+ km)
Ceiling: 5000 feet AGL
Clouds: broken clouds at 5000 feet AGL
Weather: no significant weather observed at this time

METAR text: ETMN 180020Z 22008KT 9999 BKN060 10/07 Q1020 BLU
Conditions at: ETMN (NORDHOLZ (GER-NA, DE) observed 0020 UTC 18 October 2021
Temperature: 10.0°C (50°F)
Dewpoint: 7.0°C (45°F) [RH = 82%]
Pressure (altimeter): 30.12 inches Hg (1020.0 mb)
Winds: from the SW (220 degrees) at 9 MPH (8 knots; 4.1 m/s)
Visibility: 6 or more miles (10+ km)
Ceiling: 6000 feet AGL
Clouds: broken clouds at 6000 feet AGL
Weather: no significant weather observed at this time

METAR text: ETMN 172320Z 22007KT 9999 FEW040 BKN080 10/07 Q1019 BLU
Conditions at: ETMN (NORDHOLZ (GER-NA, DE) observed 2320 UTC 17 October 2021
Temperature: 10.0°C (50°F)
Dewpoint: 7.0°C (45°F) [RH = 82%]
Pressure (altimeter): 30.09 inches Hg (1019.0 mb)
Winds: from the SW (220 degrees) at 8 MPH (7 knots; 3.6 m/s)
Visibility: 6 or more miles (10+ km)
Ceiling: 8000 feet AGL
Clouds: few clouds at 4000 feet AGL
broken clouds at 8000 feet AGL
Weather: no significant weather observed at this time

METAR text: ETMN 172220Z 21008KT 9999 BKN038 BKN080 10/07 Q1019 BLU
Conditions at: ETMN (NORDHOLZ (GER-NA, DE) observed 2220 UTC 17 October 2021
Temperature: 10.0°C (50°F)
Dewpoint: 7.0°C (45°F) [RH = 82%]
Pressure (altimeter): 30.09 inches Hg (1019.0 mb)
Winds: from the SSW (210 degrees) at 9 MPH (8 knots; 4.1 m/s)
Visibility: 6 or more miles (10+ km)
Ceiling: 3800 feet AGL
Clouds: broken clouds at 3800 feet AGL
broken clouds at 8000 feet AGL
Weather: no significant weather observed at this time

METAR text: ETMN 172120Z 22006KT 9999 BKN036 10/08 Q1019 BLU
Conditions at: ETMN (NORDHOLZ (GER-NA, DE) observed 2120 UTC 17 October 2021
Temperature: 10.0°C (50°F)
Dewpoint: 8.0°C (46°F) [RH = 87%]
Pressure (altimeter): 30.09 inches Hg (1019.0 mb)
Winds: from the SW (220 degrees) at 7 MPH (6 knots; 3.1 m/s)
Visibility: 6 or more miles (10+ km)
Ceiling: 3600 feet AGL
Clouds: broken clouds at 3600 feet AGL
Weather: no significant weather observed at this time

METAR text: ETMN 172020Z 21007KT 9999 BKN044 SCT055 BKN080 10/08 Q1019 BLU
Conditions at: ETMN (NORDHOLZ (GER-NA, DE) observed 2020 UTC 17 October 2021
Temperature: 10.0°C (50°F)
Dewpoint: 8.0°C (46°F) [RH = 87%]
Pressure (altimeter): 30.09 inches Hg (1019.0 mb)
Winds: from the SSW (210 degrees) at 8 MPH (7 knots; 3.6 m/s)
Visibility: 6 or more miles (10+ km)
Ceiling: 4400 feet AGL
Clouds: broken clouds at 4400 feet AGL
scattered clouds at 5500 feet AGL
broken clouds at 8000 feet AGL
Weather: no significant weather observed at this time

METAR text: ETMN 171920Z 21008KT 9999 FEW045 BKN060 10/08 Q1018 BLU
Conditions at: ETMN (NORDHOLZ (GER-NA, DE) observed 1920 UTC 17 October 2021
Temperature: 10.0°C (50°F)
Dewpoint: 8.0°C (46°F) [RH = 87%]
Pressure (altimeter): 30.06 inches Hg (1018.0 mb)
Winds: from the SSW (210 degrees) at 9 MPH (8 knots; 4.1 m/s)
Visibility: 6 or more miles (10+ km)
Ceiling: 6000 feet AGL
Clouds: few clouds at 4500 feet AGL
broken clouds at 6000 feet AGL
Weather: no significant weather observed at this time

METAR text: ETMN 171820Z 21006KT 9999 -RA SCT022 BKN070 10/08 Q1018 RERA BLU
Conditions at: ETMN (NORDHOLZ (GER-NA, DE) observed 1820 UTC 17 October 2021
Temperature: 10.0°C (50°F)
Dewpoint: 8.0°C (46°F) [RH = 87%]
Pressure (altimeter): 30.06 inches Hg (1018.0 mb)
Winds: from the SSW (210 degrees) at 7 MPH (6 knots; 3.1 m/s)
Visibility: 6 or more miles (10+ km)
Ceiling: 7000 feet AGL
Clouds: scattered clouds at 2200 feet AGL
broken clouds at 7000 feet AGL
Weather: -RA  (light rain)

METAR text: ETMN 171720Z 22007KT 9999 -RA BKN020 BKN055 11/07 Q1019 WHT
Conditions at: ETMN (NORDHOLZ (GER-NA, DE) observed 1720 UTC 17 October 2021
Temperature: 11.0°C (52°F)
Dewpoint: 7.0°C (45°F) [RH = 76%]
Pressure (altimeter): 30.09 inches Hg (1019.0 mb)
Winds: from the SW (220 degrees) at 8 MPH (7 knots; 3.6 m/s)
Visibility: 6 or more miles (10+ km)
Ceiling: 2000 feet AGL
Clouds: broken clouds at 2000 feet AGL
broken clouds at 5500 feet AGL
Weather: -RA  (light rain)

METAR text: ETMN 171620Z 21007KT 9999 FEW020 SCT029 BKN050 11/07 Q1018 BLU
Conditions at: ETMN (NORDHOLZ (GER-NA, DE) observed 1620 UTC 17 October 2021
Temperature: 11.0°C (52°F)
Dewpoint: 7.0°C (45°F) [RH = 76%]
Pressure (altimeter): 30.06 inches Hg (1018.0 mb)
Winds: from the SSW (210 degrees) at 8 MPH (7 knots; 3.6 m/s)
Visibility: 6 or more miles (10+ km)
Ceiling: 5000 feet AGL
Clouds: few clouds at 2000 feet AGL
scattered clouds at 2900 feet AGL
broken clouds at 5000 feet AGL
Weather: no significant weather observed at this time

METAR text: ETMN 171520Z 22006KT 9999 SCT030 BKN048 11/08 Q1018 BLU
Conditions at: ETMN (NORDHOLZ (GER-NA, DE) observed 1520 UTC 17 October 2021
Temperature: 11.0°C (52°F)
Dewpoint: 8.0°C (46°F) [RH = 82%]
Pressure (altimeter): 30.06 inches Hg (1018.0 mb)
Winds: from the SW (220 degrees) at 7 MPH (6 knots; 3.1 m/s)
Visibility: 6 or more miles (10+ km)
Ceiling: 4800 feet AGL
Clouds: scattered clouds at 3000 feet AGL
broken clouds at 4800 feet AGL
Weather: no significant weather observed at this time

Forecast for: AMD
Text: TAF AMD ETMN 181743Z 1817/1902 17005KT 9999 NSW SCT080 BKN190 BY ETGG
Forecast period: 1700 UTC 18 October 2021 to 0200 UTC 19 October 2021
Forecast type: FROM: standard forecast or significant change
Winds: from the S (170 degrees) at 6 MPH (5 knots; 2.6 m/s)
Visibility: 6 or more miles (10+ km)
Ceiling: 19000 feet AGL
Clouds: scattered clouds at 8000 feet AGL
broken clouds at 19000 feet AGL
Weather: NSW  (no significant weather)